Time;durP1;ratioP1;P1;durP2;ratioP2;P2;SDS_P1;SDS_P2;PMS_P1;PMS_P2;Temp;Humidity;BMP_temperature;BMP_pressure;BME280_temperature;BME280_humidity;BME280_pressure;Samples;Min_cycle;Max_cycle;Signal;HPM_P1;HPM_P2
2023/01/06 00:01:06;;;;;;;8.27;4.35;;;;;;;;;;5048393;28;20128;-74
2023/01/06 00:03:32;;;;;;;9.55;4.50;;;;;;;;;;5050824;28;20056;-74
2023/01/06 00:06:00;;;;;;;10.10;4.88;;;;;;;;;;5051366;28;20072;-74
2023/01/06 00:08:26;;;;;;;10.23;5.05;;;;;;;;;;5052119;28;20466;-75
2023/01/06 00:10:53;;;;;;;12.57;5.82;;;;;;;;;;5050977;28;20052;-73
2023/01/06 00:13:20;;;;;;;11.50;5.68;;;;;;;;;;5051473;28;20135;-75
2023/01/06 00:15:46;;;;;;;10.88;6.00;;;;;;;;;;5054387;28;20083;-74
2023/01/06 00:18:14;;;;;;;9.25;5.95;;;;;;;;;;5052680;28;20045;-76
2023/01/06 00:20:41;;;;;;;8.98;5.05;;;;;;;;;;5051244;28;20519;-74
2023/01/06 00:23:07;;;;;;;11.05;6.13;;;;;;;;;;5047366;28;20038;-74
2023/01/06 00:25:34;;;;;;;11.73;6.25;;;;;;;;;;5042647;28;20091;-73
2023/01/06 00:28:01;;;;;;;11.50;5.20;;;;;;;;;;5052161;28;20091;-74
2023/01/06 00:30:27;;;;;;;8.25;4.68;;;;;;;;;;5051612;28;20051;-73
2023/01/06 00:32:54;;;;;;;11.20;4.75;;;;;;;;;;5051348;28;20479;-74
2023/01/06 00:35:22;;;;;;;9.00;4.72;;;;;;;;;;5050932;28;20041;-74
2023/01/06 00:37:48;;;;;;;9.02;4.28;;;;;;;;;;5051564;28;20047;-75
2023/01/06 00:40:15;;;;;;;9.52;4.22;;;;;;;;;;5052176;28;20053;-74
2023/01/06 00:42:42;;;;;;;7.18;3.88;;;;;;;;;;5050769;28;20491;-74
2023/01/06 00:45:09;;;;;;;7.57;3.75;;;;;;;;;;5054310;28;20076;-73
2023/01/06 00:47:36;;;;;;;6.63;3.88;;;;;;;;;;5054907;28;20049;-73
2023/01/06 00:50:02;;;;;;;6.70;3.58;;;;;;;;;;5054727;28;20068;-73
2023/01/06 00:52:30;;;;;;;7.25;3.83;;;;;;;;;;5054731;28;20083;-74
2023/01/06 00:54:57;;;;;;;7.18;3.35;;;;;;;;;;5054654;28;20132;-73
2023/01/06 00:57:23;;;;;;;6.65;3.67;;;;;;;;;;5054863;28;20578;-75
2023/01/06 00:59:50;;;;;;;7.70;3.70;;;;;;;;;;5056500;28;20055;-74
2023/01/06 01:02:17;;;;;;;8.40;3.70;;;;;;;;;;5054655;28;20132;-74
2023/01/06 01:04:44;;;;;;;8.38;4.50;;;;;;;;;;5054241;28;20044;-74
2023/01/06 01:07:10;;;;;;;9.02;4.88;;;;;;;;;;5054585;28;20049;-74
2023/01/06 01:09:38;;;;;;;8.63;4.32;;;;;;;;;;5054163;28;20132;-74
2023/01/06 01:12:11;;;;;;;8.98;4.72;;;;;;;;;;5054977;28;20128;-74
2023/01/06 01:14:45;;;;;;;8.80;4.53;;;;;;;;;;5055171;28;20053;-75
2023/01/06 01:17:14;;;;;;;10.00;5.07;;;;;;;;;;5054955;28;20048;-76
2023/01/06 01:19:41;;;;;;;10.75;5.20;;;;;;;;;;5054861;28;20496;-76
2023/01/06 01:22:08;;;;;;;10.38;4.88;;;;;;;;;;5056318;28;20045;-75
2023/01/06 01:24:34;;;;;;;9.63;5.10;;;;;;;;;;5057661;28;20136;-75
2023/01/06 01:27:03;;;;;;;7.45;3.95;;;;;;;;;;5057613;28;20159;-74
2023/01/06 01:29:29;;;;;;;9.15;4.75;;;;;;;;;;5056522;28;20045;-74
2023/01/06 01:31:56;;;;;;;7.55;3.97;;;;;;;;;;5056861;28;20045;-75
2023/01/06 01:34:23;;;;;;;6.28;3.30;;;;;;;;;;5060886;28;20488;-74
2023/01/06 01:36:52;;;;;;;9.27;4.25;;;;;;;;;;5061122;28;20141;-74
2023/01/06 01:39:22;;;;;;;6.82;3.17;;;;;;;;;;5060768;28;20053;-74
2023/01/06 01:41:49;;;;;;;8.23;4.23;;;;;;;;;;5057501;28;20053;-74
2023/01/06 01:44:52;;;;;;;8.15;4.00;;;;;;;;;;5057044;28;20080;-73
2023/01/06 01:47:26;;;;;;;6.38;3.50;;;;;;;;;;5041129;28;20049;-73
2023/01/06 01:49:56;;;;;;;6.82;3.97;;;;;;;;;;5055565;28;20503;-73
2023/01/06 01:52:23;;;;;;;7.60;3.80;;;;;;;;;;5053851;28;20131;-75
2023/01/06 01:54:52;;;;;;;8.55;4.45;;;;;;;;;;5052918;28;20139;-74
2023/01/06 01:57:25;;;;;;;7.40;3.60;;;;;;;;;;5055813;28;20052;-74
2023/01/06 01:59:53;;;;;;;7.70;4.07;;;;;;;;;;5054843;28;20094;-74
2023/01/06 02:02:22;;;;;;;8.77;3.83;;;;;;;;;;5053760;28;20045;-73
2023/01/06 02:04:53;;;;;;;9.75;5.20;;;;;;;;;;5053461;28;20132;-74
2023/01/06 02:07:20;;;;;;;;;;;;;;;;;;5054153;28;20040;-74
2023/01/06 02:09:54;;;;;;;10.23;4.57;;;;;;;;;;5053634;28;20015;-74
2023/01/06 02:12:20;;;;;;;8.25;4.68;;;;;;;;;;5053583;28;20136;-74
2023/01/06 02:14:47;;;;;;;7.35;3.90;;;;;;;;;;5053459;28;20515;-74
2023/01/06 02:17:28;;;;;;;8.52;4.00;;;;;;;;;;5053447;28;20072;-74
2023/01/06 02:20:30;;;;;;;5.88;3.10;;;;;;;;;;5052811;28;20491;-75
2023/01/06 02:23:25;;;;;;;6.43;3.45;;;;;;;;;;5037048;28;20080;-75
2023/01/06 02:26:18;;;;;;;8.13;3.53;;;;;;;;;;5053376;28;20235;-75
2023/01/06 02:29:09;;;;;;;6.35;3.35;;;;;;;;;;5043131;28;20075;-75
2023/01/06 02:31:56;;;;;;;9.27;3.55;;;;;;;;;;5052449;28;20504;-75
2023/01/06 02:34:38;;;;;;;7.50;3.78;;;;;;;;;;5053304;28;20056;-74
2023/01/06 02:37:14;;;;;;;8.43;3.92;;;;;;;;;;5052940;28;20059;-74
2023/01/06 02:39:49;;;;;;;6.85;3.58;;;;;;;;;;5053510;28;20132;-74
2023/01/06 02:42:22;;;;;;;8.13;4.07;;;;;;;;;;5052579;28;20080;-73
2023/01/06 02:45:01;;;;;;;8.57;4.20;;;;;;;;;;5053069;28;20053;-73
2023/01/06 02:47:34;;;;;;;7.45;3.53;;;;;;;;;;5052719;28;20041;-73
2023/01/06 02:50:10;;;;;;;7.45;3.60;;;;;;;;;;5052980;28;20085;-73
2023/01/06 02:52:45;;;;;;;8.45;3.65;;;;;;;;;;5052601;28;20407;-73
2023/01/06 02:55:19;;;;;;;7.97;3.60;;;;;;;;;;5052762;28;20410;-74
2023/01/06 02:57:53;;;;;;;7.47;3.03;;;;;;;;;;5052839;28;20053;-73
2023/01/06 03:00:24;;;;;;;7.03;3.50;;;;;;;;;;5053191;28;20469;-74
2023/01/06 03:02:57;;;;;;;6.90;3.28;;;;;;;;;;5053073;28;20411;-73
2023/01/06 03:05:26;;;;;;;6.32;3.40;;;;;;;;;;5053672;28;20052;-73
2023/01/06 03:07:55;;;;;;;7.00;3.50;;;;;;;;;;5053562;28;20056;-73
2023/01/06 03:10:24;;;;;;;6.88;3.35;;;;;;;;;;5053584;28;20048;-73
2023/01/06 03:12:53;;;;;;;7.40;3.45;;;;;;;;;;5053234;28;20051;-73
2023/01/06 03:15:20;;;;;;;7.13;3.92;;;;;;;;;;5052836;28;20049;-74
2023/01/06 03:17:47;;;;;;;6.50;3.35;;;;;;;;;;5052358;28;20053;-73
2023/01/06 03:20:15;;;;;;;7.22;3.35;;;;;;;;;;5052525;28;20049;-74
2023/01/06 03:22:42;;;;;;;10.20;3.88;;;;;;;;;;5052212;28;20136;-73
2023/01/06 03:25:09;;;;;;;8.05;3.63;;;;;;;;;;5052336;28;20049;-73
2023/01/06 03:27:36;;;;;;;10.13;3.97;;;;;;;;;;5052676;28;20507;-73
2023/01/06 03:30:08;;;;;;;7.25;3.40;;;;;;;;;;5052210;28;20045;-73
2023/01/06 03:32:41;;;;;;;6.95;3.65;;;;;;;;;;5051917;28;20492;-73
2023/01/06 03:35:19;;;;;;;6.72;3.20;;;;;;;;;;5052007;28;20053;-73
2023/01/06 03:37:54;;;;;;;7.65;3.20;;;;;;;;;;5051743;28;20414;-74
2023/01/06 03:40:31;;;;;;;7.13;3.40;;;;;;;;;;5051943;28;20496;-74
2023/01/06 03:43:24;;;;;;;6.63;3.05;;;;;;;;;;5051756;28;20047;-74
2023/01/06 03:45:56;;;;;;;6.07;3.38;;;;;;;;;;5048701;28;20060;-73
2023/01/06 03:48:33;;;;;;;6.95;3.13;;;;;;;;;;5051878;28;20051;-74
2023/01/06 03:51:07;;;;;;;9.40;3.95;;;;;;;;;;5051894;28;20051;-74
2023/01/06 03:53:38;;;;;;;6.30;3.10;;;;;;;;;;5051764;28;20045;-74
2023/01/06 03:56:14;;;;;;;6.93;3.75;;;;;;;;;;5051731;28;20414;-74
2023/01/06 03:58:41;;;;;;;11.10;4.22;;;;;;;;;;5051804;28;20056;-73
2023/01/06 04:01:08;;;;;;;6.32;3.50;;;;;;;;;;5051566;28;20052;-74
2023/01/06 04:03:35;;;;;;;7.75;3.58;;;;;;;;;;5051314;28;20057;-73
2023/01/06 04:06:03;;;;;;;8.55;3.63;;;;;;;;;;5051501;28;20067;-73
2023/01/06 04:08:29;;;;;;;10.45;4.50;;;;;;;;;;5052133;28;20045;-73
2023/01/06 04:10:56;;;;;;;6.47;3.58;;;;;;;;;;5051594;28;20045;-73
2023/01/06 04:13:22;;;;;;;6.15;3.35;;;;;;;;;;5051205;28;20048;-74
2023/01/06 04:15:48;;;;;;;5.47;2.80;;;;;;;;;;5051332;28;20048;-73
2023/01/06 04:18:15;;;;;;;4.72;2.63;;;;;;;;;;5051740;28;20041;-73
2023/01/06 04:20:41;;;;;;;5.65;2.90;;;;;;;;;;5055238;28;20053;-73
2023/01/06 04:23:09;;;;;;;5.35;2.97;;;;;;;;;;5055377;28;20049;-73
2023/01/06 04:25:36;;;;;;;5.57;2.95;;;;;;;;;;5055393;28;20045;-73
2023/01/06 04:28:02;;;;;;;6.43;3.10;;;;;;;;;;5043182;28;20048;-73
2023/01/06 04:30:29;;;;;;;5.50;2.60;;;;;;;;;;5055319;28;20045;-73
2023/01/06 04:32:55;;;;;;;4.57;2.60;;;;;;;;;;5055688;28;20052;-73
2023/01/06 04:35:22;;;;;;;6.10;2.97;;;;;;;;;;5055196;28;20048;-73
2023/01/06 04:37:48;;;;;;;5.45;2.90;;;;;;;;;;5055232;28;20063;-73
2023/01/06 04:40:17;;;;;;;5.85;3.17;;;;;;;;;;5054938;28;20045;-74
2023/01/06 04:45:27;;;;;;;5.32;2.47;;;;;;;;;;5055320;28;20094;-73
2023/01/06 04:47:54;;;;;;;5.93;2.88;;;;;;;;;;5055210;28;20041;-74
2023/01/06 04:50:21;;;;;;;5.70;2.70;;;;;;;;;;5054793;28;20037;-74
2023/01/06 04:52:47;;;;;;;5.13;2.30;;;;;;;;;;5054751;28;20068;-73
2023/01/06 04:55:14;;;;;;;4.18;2.10;;;;;;;;;;5054904;28;20056;-74
2023/01/06 04:57:42;;;;;;;4.28;2.30;;;;;;;;;;5055080;28;20045;-73
2023/01/06 05:00:09;;;;;;;5.05;2.30;;;;;;;;;;5055013;28;20068;-74
2023/01/06 05:02:36;;;;;;;7.05;3.00;;;;;;;;;;5054914;28;20056;-73
2023/01/06 05:05:03;;;;;;;6.53;3.30;;;;;;;;;;5054666;28;20049;-73
2023/01/06 05:07:29;;;;;;;5.45;2.90;;;;;;;;;;5055279;28;20049;-73
2023/01/06 05:09:56;;;;;;;5.82;2.80;;;;;;;;;;5055094;28;20041;-73
2023/01/06 05:12:22;;;;;;;5.80;3.17;;;;;;;;;;5054388;28;20049;-73
2023/01/06 05:14:50;;;;;;;5.10;2.88;;;;;;;;;;5054468;28;20056;-73
2023/01/06 05:17:17;;;;;;;5.75;3.08;;;;;;;;;;5054406;28;20045;-73
2023/01/06 05:19:44;;;;;;;6.10;3.20;;;;;;;;;;5054079;28;20407;-73
2023/01/06 05:22:11;;;;;;;6.68;3.30;;;;;;;;;;5054538;28;20053;-72
2023/01/06 05:24:38;;;;;;;6.03;2.97;;;;;;;;;;5054673;28;20052;-73
2023/01/06 05:27:05;;;;;;;6.57;3.42;;;;;;;;;;5054162;28;20099;-74
2023/01/06 05:29:32;;;;;;;5.45;2.67;;;;;;;;;;5054432;28;20051;-72
2023/01/06 05:32:00;;;;;;;6.18;2.88;;;;;;;;;;5053654;28;20048;-73
2023/01/06 05:34:27;;;;;;;5.75;2.55;;;;;;;;;;5054553;28;20045;-73
2023/01/06 05:36:53;;;;;;;6.40;2.42;;;;;;;;;;5054004;28;20415;-74
2023/01/06 05:39:20;;;;;;;4.57;2.40;;;;;;;;;;5054425;28;20051;-74
2023/01/06 05:41:47;;;;;;;4.53;2.40;;;;;;;;;;5053995;28;20055;-74
2023/01/06 05:44:13;;;;;;;4.50;2.08;;;;;;;;;;5054584;28;20041;-74
2023/01/06 05:46:40;;;;;;;4.57;1.98;;;;;;;;;;5053588;28;20059;-74
2023/01/06 05:49:09;;;;;;;4.82;2.25;;;;;;;;;;5054321;28;20068;-75
2023/01/06 05:51:35;;;;;;;4.50;2.10;;;;;;;;;;5053347;28;20499;-75
2023/01/06 05:54:02;;;;;;;4.65;2.10;;;;;;;;;;5054183;28;20052;-74
2023/01/06 05:56:29;;;;;;;4.25;2.10;;;;;;;;;;5053578;28;20048;-74
2023/01/06 05:58:55;;;;;;;3.35;1.88;;;;;;;;;;5054119;28;20048;-74
2023/01/06 06:01:23;;;;;;;5.32;2.25;;;;;;;;;;5053766;28;20044;-74
2023/01/06 06:03:52;;;;;;;3.88;1.90;;;;;;;;;;5053611;28;20644;-74
2023/01/06 06:06:22;;;;;;;4.43;1.98;;;;;;;;;;5053458;28;20041;-74
2023/01/06 06:08:49;;;;;;;4.97;2.03;;;;;;;;;;5053625;28;20041;-74
2023/01/06 06:11:17;;;;;;;5.13;2.75;;;;;;;;;;5052963;28;20492;-75
2023/01/06 06:13:48;;;;;;;4.53;2.30;;;;;;;;;;5053390;28;20056;-72
2023/01/06 06:16:16;;;;;;;3.65;2.05;;;;;;;;;;5053406;28;20068;-73
2023/01/06 06:18:43;;;;;;;4.35;2.58;;;;;;;;;;5053337;28;20514;-73
2023/01/06 06:21:11;;;;;;;4.13;2.08;;;;;;;;;;5053206;28;20044;-74
2023/01/06 06:23:39;;;;;;;4.30;2.00;;;;;;;;;;5053241;28;20408;-73
2023/01/06 06:26:06;;;;;;;4.28;2.20;;;;;;;;;;5052723;28;20492;-74
2023/01/06 06:28:33;;;;;;;5.07;2.58;;;;;;;;;;5053239;28;20106;-74
2023/01/06 06:31:05;;;;;;;6.18;2.15;;;;;;;;;;5053291;28;20045;-74
2023/01/06 06:33:31;;;;;;;4.43;2.15;;;;;;;;;;5052975;28;20049;-74
2023/01/06 06:35:59;;;;;;;4.15;1.70;;;;;;;;;;5052924;28;20482;-74
2023/01/06 06:38:25;;;;;;;3.67;2.00;;;;;;;;;;5052705;28;20055;-73
2023/01/06 06:40:53;;;;;;;4.35;2.40;;;;;;;;;;5072105;22;20045;-78
2023/01/06 06:43:20;;;;;;;4.30;1.83;;;;;;;;;;5052818;28;20048;-76
2023/01/06 06:45:47;;;;;;;3.38;2.00;;;;;;;;;;5053637;28;20124;-81
2023/01/06 06:48:14;;;;;;;4.85;1.92;;;;;;;;;;5053686;28;20052;-77
2023/01/06 06:50:41;;;;;;;4.32;1.70;;;;;;;;;;5043241;28;20048;-77
2023/01/06 06:53:08;;;;;;;3.15;1.63;;;;;;;;;;5032912;28;20259;-77
2023/01/06 06:55:34;;;;;;;3.92;1.95;;;;;;;;;;5032877;28;20639;-78
2023/01/06 06:58:02;;;;;;;3.75;1.80;;;;;;;;;;5033150;28;20056;-77
2023/01/06 07:00:29;;;;;;;6.28;2.33;;;;;;;;;;5033135;28;20051;-78
2023/01/06 07:02:55;;;;;;;4.20;2.00;;;;;;;;;;5032434;28;20045;-78
2023/01/06 07:05:24;;;;;;;5.20;2.30;;;;;;;;;;5032808;28;20050;-77
2023/01/06 07:07:51;;;;;;;4.00;2.30;;;;;;;;;;5032979;28;20111;-77
2023/01/06 07:10:17;;;;;;;4.82;2.03;;;;;;;;;;5032904;28;20052;-79
2023/01/06 07:12:44;;;;;;;4.10;2.00;;;;;;;;;;5032715;28;20052;-78
2023/01/06 07:15:12;;;;;;;4.15;1.92;;;;;;;;;;5032819;28;20484;-77
2023/01/06 07:17:40;;;;;;;3.20;2.03;;;;;;;;;;5032364;28;20504;-76
2023/01/06 07:20:08;;;;;;;6.10;1.80;;;;;;;;;;5032468;28;20132;-77
2023/01/06 07:22:37;;;;;;;2.75;1.40;;;;;;;;;;5032284;28;20060;-77
2023/01/06 07:25:04;;;;;;;2.72;1.48;;;;;;;;;;5032534;28;20629;-78
2023/01/06 07:27:30;;;;;;;2.85;1.60;;;;;;;;;;5032615;28;20056;-78
2023/01/06 07:29:57;;;;;;;3.80;1.88;;;;;;;;;;5032394;28;20046;-78
2023/01/06 07:32:25;;;;;;;3.75;1.70;;;;;;;;;;5031925;28;20061;-77
2023/01/06 07:34:51;;;;;;;3.83;1.60;;;;;;;;;;5032438;28;20045;-77
2023/01/06 07:37:18;;;;;;;3.78;1.92;;;;;;;;;;5032452;28;20042;-79
2023/01/06 07:39:45;;;;;;;2.80;1.30;;;;;;;;;;5032258;28;20041;-78
2023/01/06 07:42:11;;;;;;;3.30;1.50;;;;;;;;;;5032710;28;20053;-78
2023/01/06 07:44:38;;;;;;;2.85;1.65;;;;;;;;;;5032106;28;20056;-76
2023/01/06 07:47:05;;;;;;;3.75;1.30;;;;;;;;;;5032524;28;20045;-79
2023/01/06 07:49:33;;;;;;;3.33;1.48;;;;;;;;;;5032018;28;20512;-78
2023/01/06 07:51:59;;;;;;;2.67;1.20;;;;;;;;;;5031500;28;20515;-78
2023/01/06 07:54:26;;;;;;;3.28;1.17;;;;;;;;;;5030971;28;20046;-78
2023/01/06 07:56:52;;;;;;;4.03;1.70;;;;;;;;;;5032013;28;20056;-78
2023/01/06 07:59:19;;;;;;;3.33;1.63;;;;;;;;;;5032285;28;20050;-79
2023/01/06 08:01:45;;;;;;;2.63;1.20;;;;;;;;;;5031895;28;20077;-77
2023/01/06 08:04:12;;;;;;;3.22;1.42;;;;;;;;;;5031673;28;20045;-77
2023/01/06 08:06:40;;;;;;;3.58;2.00;;;;;;;;;;5033093;28;20595;-76
2023/01/06 08:09:08;;;;;;;2.28;1.33;;;;;;;;;;5033207;28;20164;-78
2023/01/06 08:11:34;;;;;;;4.57;1.90;;;;;;;;;;5031776;28;20056;-77
2023/01/06 08:14:01;;;;;;;3.25;1.60;;;;;;;;;;5032440;28;20045;-77
2023/01/06 08:16:28;;;;;;;3.08;1.85;;;;;;;;;;5032422;28;20045;-78
2023/01/06 08:18:54;;;;;;;3.85;1.42;;;;;;;;;;5032393;28;20046;-78
2023/01/06 08:21:21;;;;;;;4.60;1.80;;;;;;;;;;5032282;28;20052;-77
2023/01/06 08:23:49;;;;;;;4.70;2.08;;;;;;;;;;5032223;28;20056;-79
2023/01/06 08:26:19;;;;;;;3.85;1.80;;;;;;;;;;5032466;28;20045;-77
2023/01/06 08:28:46;;;;;;;2.75;1.70;;;;;;;;;;5032218;28;20132;-79
2023/01/06 08:31:15;;;;;;;4.00;2.00;;;;;;;;;;5032116;28;20045;-78
2023/01/06 08:33:42;;;;;;;3.70;1.80;;;;;;;;;;5030994;28;20052;-77
2023/01/06 08:36:12;;;;;;;3.20;1.50;;;;;;;;;;5031594;28;20071;-78
2023/01/06 08:38:39;;;;;;;3.38;1.70;;;;;;;;;;5032456;28;20042;-78
2023/01/06 08:41:08;;;;;;;4.80;1.73;;;;;;;;;;5032276;28;20045;-78
2023/01/06 08:43:35;;;;;;;2.45;1.10;;;;;;;;;;5031758;28;20140;-78
2023/01/06 08:46:04;;;;;;;3.42;1.40;;;;;;;;;;5031873;28;20149;-78
2023/01/06 08:48:32;;;;;;;3.33;1.50;;;;;;;;;;5031854;28;20045;-78
2023/01/06 08:51:03;;;;;;;3.30;1.50;;;;;;;;;;5031926;28;20049;-78
2023/01/06 08:53:29;;;;;;;3.35;1.45;;;;;;;;;;5032997;28;20471;-79
2023/01/06 08:55:56;;;;;;;2.78;1.55;;;;;;;;;;5033374;28;20045;-77
2023/01/06 08:58:24;;;;;;;6.43;2.78;;;;;;;;;;5031582;28;20124;-78
2023/01/06 09:00:51;;;;;;;8.05;3.30;;;;;;;;;;5031737;28;20041;-78
2023/01/06 09:03:17;;;;;;;4.57;1.85;;;;;;;;;;5031466;28;20045;-78
2023/01/06 09:05:44;;;;;;;5.07;1.70;;;;;;;;;;5033913;28;20057;-78
2023/01/06 09:08:11;;;;;;;3.92;1.55;;;;;;;;;;5035441;28;20496;-77
2023/01/06 09:10:38;;;;;;;5.53;1.98;;;;;;;;;;5035090;28;20056;-80
2023/01/06 09:13:08;;;;;;;4.35;1.75;;;;;;;;;;5035093;28;20486;-80
2023/01/06 09:15:39;;;;;;;3.42;1.70;;;;;;;;;;5039466;28;20045;-78
2023/01/06 09:18:07;;;;;;;4.97;1.90;;;;;;;;;;5034990;28;20055;-77
2023/01/06 09:20:34;;;;;;;3.53;1.50;;;;;;;;;;5034913;28;20050;-77
2023/01/06 09:23:00;;;;;;;2.47;1.20;;;;;;;;;;5034311;28;20372;-78
2023/01/06 09:25:27;;;;;;;3.67;1.65;;;;;;;;;;5035138;28;20051;-77
2023/01/06 09:27:54;;;;;;;8.20;3.30;;;;;;;;;;5034361;28;20459;-78
2023/01/06 09:30:20;;;;;;;2.75;0.80;;;;;;;;;;5038349;28;20045;-78
2023/01/06 09:32:48;;;;;;;3.85;1.10;;;;;;;;;;5043671;28;20451;-79
2023/01/06 09:35:15;;;;;;;2.33;0.95;;;;;;;;;;5038136;28;20041;-79
2023/01/06 09:37:42;;;;;;;1.63;0.82;;;;;;;;;;5038218;28;20056;-79
2023/01/06 09:40:15;;;;;;;2.35;0.90;;;;;;;;;;5037372;28;20048;-79
2023/01/06 09:42:57;;;;;;;1.92;0.90;;;;;;;;;;5038114;28;20500;-79
2023/01/06 09:45:33;;;;;;;2.08;1.05;;;;;;;;;;5017289;28;20488;-80
2023/01/06 09:48:06;;;;;;;3.45;1.30;;;;;;;;;;5018954;28;20050;-80
2023/01/06 09:50:37;;;;;;;5.63;1.40;;;;;;;;;;5022848;28;20144;-80
2023/01/06 09:53:11;;;;;;;3.88;1.88;;;;;;;;;;5037919;28;20041;-80
2023/01/06 09:55:42;;;;;;;3.22;1.30;;;;;;;;;;5017030;28;20064;-77
2023/01/06 09:58:13;;;;;;;3.75;1.40;;;;;;;;;;5014551;28;20054;-79
2023/01/06 10:00:42;;;;;;;3.22;1.25;;;;;;;;;;5014353;28;20149;-77
2023/01/06 10:03:14;;;;;;;3.42;1.60;;;;;;;;;;5014190;28;20056;-78
2023/01/06 10:05:57;;;;;;;4.10;1.50;;;;;;;;;;5028516;28;20049;-78
2023/01/06 10:08:33;;;;;;;3.38;1.38;;;;;;;;;;5034253;28;20567;-78
2023/01/06 10:11:11;;;;;;;3.10;1.25;;;;;;;;;;5034053;28;20071;-78
2023/01/06 10:13:57;;;;;;;3.25;1.40;;;;;;;;;;5033996;28;20361;-78
2023/01/06 10:16:34;;;;;;;3.17;1.30;;;;;;;;;;5034246;28;20424;-77
2023/01/06 10:19:16;;;;;;;2.60;1.15;;;;;;;;;;5035787;28;20080;-77
2023/01/06 10:21:48;;;;;;;2.33;1.15;;;;;;;;;;5038017;28;20049;-78
2023/01/06 10:24:31;;;;;;;3.58;1.42;;;;;;;;;;5034859;28;20452;-79
2023/01/06 10:26:59;;;;;;;2.90;1.40;;;;;;;;;;5034149;28;20053;-78
2023/01/06 10:29:32;;;;;;;3.50;1.42;;;;;;;;;;5034759;28;20046;-79
2023/01/06 10:32:00;;;;;;;4.10;1.50;;;;;;;;;;5034876;28;20080;-79
2023/01/06 10:34:30;;;;;;;3.67;1.60;;;;;;;;;;5034025;28;20045;-79
2023/01/06 10:37:02;;;;;;;3.65;1.48;;;;;;;;;;5034299;28;20049;-78
2023/01/06 10:39:30;;;;;;;4.20;2.15;;;;;;;;;;5014915;28;20100;-78
2023/01/06 10:44:51;;;;;;;3.70;1.73;;;;;;;;;;5015000;28;20108;-78
2023/01/06 10:47:28;;;;;;;3.38;1.73;;;;;;;;;;5017028;28;20416;-78
2023/01/06 10:49:56;;;;;;;3.53;1.77;;;;;;;;;;5034755;28;20069;-79
2023/01/06 10:52:25;;;;;;;3.45;1.63;;;;;;;;;;5034888;28;20061;-79
2023/01/06 10:54:54;;;;;;;4.07;1.90;;;;;;;;;;5033954;28;20100;-79
2023/01/06 10:57:25;;;;;;;3.15;1.58;;;;;;;;;;5034116;28;20128;-79
2023/01/06 11:00:14;;;;;;;2.63;1.45;;;;;;;;;;5033800;28;20181;-78
2023/01/06 11:02:46;;;;;;;5.13;2.50;;;;;;;;;;5033625;28;20128;-79
2023/01/06 11:05:16;;;;;;;4.45;2.00;;;;;;;;;;5032416;28;20045;-78
2023/01/06 11:07:54;;;;;;;6.82;2.55;;;;;;;;;;5033500;28;20046;-79
2023/01/06 11:10:27;;;;;;;4.20;2.00;;;;;;;;;;5033393;28;20046;-78
2023/01/06 11:12:56;;;;;;;5.38;2.10;;;;;;;;;;5033026;28;20051;-78
2023/01/06 11:15:34;;;;;;;5.90;2.45;;;;;;;;;;5033253;28;20049;-78
2023/01/06 11:18:00;;;;;;;3.83;2.10;;;;;;;;;;5032469;28;20412;-78
2023/01/06 11:20:31;;;;;;;3.70;2.20;;;;;;;;;;5035369;28;20041;-79
2023/01/06 11:23:12;;;;;;;;;;;;;;;;;;5034281;28;20409;-79
2023/01/06 11:25:39;;;;;;;3.65;1.80;;;;;;;;;;5033316;28;19967;-78
2023/01/06 11:28:19;;;;;;;5.28;2.65;;;;;;;;;;5033039;28;20048;-79
2023/01/06 11:30:50;;;;;;;7.07;3.75;;;;;;;;;;5031860;28;20064;-78
2023/01/06 11:33:19;;;;;;;5.03;2.30;;;;;;;;;;5032971;28;20045;-79
2023/01/06 11:35:47;;;;;;;5.15;2.70;;;;;;;;;;5033405;28;20500;-79
2023/01/06 11:38:16;;;;;;;4.82;2.50;;;;;;;;;;5042400;28;20049;-78
2023/01/06 11:40:46;;;;;;;5.72;2.70;;;;;;;;;;5043485;28;20493;-78
2023/01/06 11:43:15;;;;;;;7.28;3.50;;;;;;;;;;5035166;28;20558;-79
2023/01/06 11:45:46;;;;;;;7.15;4.00;;;;;;;;;;5032999;28;20049;-78
2023/01/06 11:48:17;;;;;;;7.85;4.18;;;;;;;;;;5033634;28;20045;-82
2023/01/06 11:50:56;;;;;;;8.30;4.43;;;;;;;;;;5033295;28;20052;-77
2023/01/06 11:53:24;;;;;;;7.90;4.03;;;;;;;;;;5032153;28;20045;-78
2023/01/06 11:55:58;;;;;;;9.90;4.88;;;;;;;;;;5035974;28;20051;-78
2023/01/06 11:58:45;;;;;;;7.57;4.18;;;;;;;;;;5034294;28;20132;-79
2023/01/06 12:01:17;;;;;;;9.85;5.18;;;;;;;;;;5013772;28;20523;-78
2023/01/06 12:03:45;;;;;;;9.27;4.82;;;;;;;;;;5030878;28;20181;-79
2023/01/06 12:06:28;;;;;;;7.65;3.90;;;;;;;;;;5033720;28;20139;-79
2023/01/06 12:09:00;;;;;;;6.85;3.67;;;;;;;;;;5033387;28;20045;-78
2023/01/06 12:11:34;;;;;;;6.78;3.47;;;;;;;;;;5013472;28;20064;-79
2023/01/06 12:14:01;;;;;;;6.97;3.70;;;;;;;;;;5032562;28;20504;-79
2023/01/06 12:16:36;;;;;;;7.80;4.13;;;;;;;;;;5034467;28;20042;-79
2023/01/06 12:19:09;;;;;;;7.32;3.53;;;;;;;;;;5034056;28;20419;-80
2023/01/06 12:21:38;;;;;;;7.90;3.72;;;;;;;;;;5032982;28;20060;-78
2023/01/06 12:24:07;;;;;;;6.50;3.40;;;;;;;;;;5033631;28;20506;-78
2023/01/06 12:26:35;;;;;;;6.75;3.35;;;;;;;;;;5032688;28;20136;-78
2023/01/06 12:29:04;;;;;;;6.13;3.00;;;;;;;;;;5032809;28;20054;-78
2023/01/06 12:31:43;;;;;;;6.15;3.28;;;;;;;;;;5032220;28;20060;-78
2023/01/06 12:34:23;;;;;;;5.93;3.20;;;;;;;;;;5032939;28;20045;-78
2023/01/06 12:36:56;;;;;;;5.95;3.00;;;;;;;;;;5033344;28;20095;-80
2023/01/06 12:39:30;;;;;;;6.65;3.33;;;;;;;;;;5036932;28;20124;-84
2023/01/06 12:42:03;;;;;;;5.70;3.38;;;;;;;;;;5063347;22;20042;-63
2023/01/06 12:44:40;;;;;;;6.55;3.08;;;;;;;;;;5016258;28;20502;-66
2023/01/06 12:47:13;;;;;;;7.03;3.50;;;;;;;;;;5020215;28;20430;-63
2023/01/06 12:49:43;;;;;;;6.28;3.47;;;;;;;;;;5035718;28;20041;-66
2023/01/06 12:52:17;;;;;;;6.05;3.03;;;;;;;;;;5015155;28;20100;-53
2023/01/06 12:54:48;;;;;;;7.10;3.65;;;;;;;;;;5016063;28;20478;-53
2023/01/06 12:57:26;;;;;;;5.90;3.10;;;;;;;;;;5015569;28;20388;-53
2023/01/06 13:00:03;;;;;;;4.57;2.63;;;;;;;;;;5015696;28;20050;-56
2023/01/06 13:02:47;;;;;;;4.35;2.53;;;;;;;;;;5015711;28;20043;-52
2023/01/06 13:05:26;;;;;;;4.57;2.45;;;;;;;;;;5015991;28;20100;-56
2023/01/06 13:08:06;;;;;;;4.70;2.42;;;;;;;;;;5015538;28;20054;-53
2023/01/06 13:10:38;;;;;;;4.97;2.42;;;;;;;;;;5015361;28;20467;-57
2023/01/06 13:13:39;;;;;;;4.00;2.10;;;;;;;;;;4995966;28;20047;-55
2023/01/06 13:16:15;;;;;;;4.68;2.20;;;;;;;;;;4936000;29;20067;-53
2023/01/06 13:18:48;;;;;;;4.78;1.90;;;;;;;;;;5000853;28;20418;-53
2023/01/06 13:21:20;;;;;;;3.75;1.77;;;;;;;;;;5015501;28;20050;-56
2023/01/06 13:24:03;;;;;;;3.30;1.52;;;;;;;;;;5015332;28;20050;-53
2023/01/06 13:26:58;;;;;;;4.03;1.88;;;;;;;;;;5015131;28;20057;-56
2023/01/06 13:29:39;;;;;;;3.47;1.70;;;;;;;;;;5013387;28;20080;-55
2023/01/06 13:32:24;;;;;;;3.35;1.50;;;;;;;;;;5015371;28;20049;-56
2023/01/06 13:35:11;;;;;;;3.85;1.40;;;;;;;;;;5015437;28;20104;-55
2023/01/06 13:37:41;;;;;;;3.92;1.52;;;;;;;;;;5015193;28;20116;-55
2023/01/06 13:40:13;;;;;;;3.65;1.52;;;;;;;;;;5015025;28;20108;-56
2023/01/06 13:42:44;;;;;;;3.25;1.38;;;;;;;;;;5014870;28;20046;-56
2023/01/06 13:45:18;;;;;;;3.67;1.40;;;;;;;;;;5015048;28;20049;-56
2023/01/06 13:47:48;;;;;;;2.95;1.40;;;;;;;;;;5014748;28;20057;-55
2023/01/06 13:50:17;;;;;;;2.67;1.33;;;;;;;;;;5014472;28;20478;-56
2023/01/06 13:52:44;;;;;;;3.53;1.42;;;;;;;;;;5014753;28;20053;-56
2023/01/06 13:55:31;;;;;;;3.67;1.90;;;;;;;;;;5014053;28;20042;-52
2023/01/06 13:58:18;;;;;;;4.38;1.33;;;;;;;;;;5014721;28;20406;-57
2023/01/06 14:01:03;;;;;;;2.92;1.70;;;;;;;;;;5014278;28;20050;-57
2023/01/06 14:03:30;;;;;;;3.60;1.60;;;;;;;;;;5014560;28;20092;-53
2023/01/06 14:05:59;;;;;;;2.97;1.33;;;;;;;;;;5014633;28;20046;-57
2023/01/06 14:08:29;;;;;;;2.90;1.50;;;;;;;;;;5014426;28;20046;-56
2023/01/06 14:11:03;;;;;;;3.38;1.55;;;;;;;;;;5014497;28;20054;-57
2023/01/06 14:13:34;;;;;;;2.85;1.20;;;;;;;;;;5014541;28;20123;-54
2023/01/06 14:16:05;;;;;;;3.13;1.30;;;;;;;;;;5013896;28;20450;-55
2023/01/06 14:18:41;;;;;;;3.55;1.52;;;;;;;;;;5000491;28;20108;-53
2023/01/06 14:21:22;;;;;;;2.85;1.48;;;;;;;;;;5001166;28;20038;-57
2023/01/06 14:23:51;;;;;;;3.40;1.65;;;;;;;;;;5011359;28;20046;-57
2023/01/06 14:26:19;;;;;;;3.10;1.35;;;;;;;;;;5014266;28;20056;-57
2023/01/06 14:28:46;;;;;;;3.53;1.65;;;;;;;;;;5012798;28;20108;-52
2023/01/06 14:31:47;;;;;;;2.88;1.25;;;;;;;;;;5013451;28;20069;-55
2023/01/06 14:34:16;;;;;;;3.33;1.73;;;;;;;;;;5014613;28;20057;-53
2023/01/06 14:36:43;;;;;;;4.05;1.77;;;;;;;;;;5014016;28;20128;-56
2023/01/06 14:39:20;;;;;;;3.85;1.40;;;;;;;;;;5014394;28;20568;-53
2023/01/06 14:41:55;;;;;;;3.45;1.48;;;;;;;;;;5013913;28;20181;-55
2023/01/06 14:44:29;;;;;;;3.30;1.70;;;;;;;;;;5013701;28;20120;-54
2023/01/06 14:47:00;;;;;;;3.78;1.63;;;;;;;;;;4994143;28;20503;-56
2023/01/06 14:49:36;;;;;;;2.47;1.30;;;;;;;;;;4994182;28;20557;-54
2023/01/06 14:52:16;;;;;;;4.97;1.83;;;;;;;;;;4993601;28;20257;-53
2023/01/06 14:54:46;;;;;;;4.28;2.03;;;;;;;;;;5000584;28;20050;-54
2023/01/06 14:57:26;;;;;;;3.17;1.58;;;;;;;;;;5013544;28;20042;-54
2023/01/06 15:00:12;;;;;;;3.67;1.60;;;;;;;;;;5013405;28;20510;-56
2023/01/06 15:02:44;;;;;;;2.88;1.42;;;;;;;;;;5012394;28;20054;-56
2023/01/06 15:05:18;;;;;;;3.25;1.75;;;;;;;;;;5013291;28;20485;-56
2023/01/06 15:07:59;;;;;;;4.20;2.22;;;;;;;;;;5013245;28;20099;-56
2023/01/06 15:10:28;;;;;;;4.45;1.90;;;;;;;;;;5013326;28;20049;-53